sensor_id;sensor_type;location;lat;lon;timestamp;P1;durP1;ratioP1;P2;durP2;ratioP2
13832;SDS011;6987;19.472;-99.276;2022-10-29T00:00:55;26.48;;;20.85;;
13832;SDS011;6987;19.472;-99.276;2022-10-29T00:03:24;25.13;;;20.95;;
13832;SDS011;6987;19.472;-99.276;2022-10-29T00:05:54;26.88;;;20.75;;
13832;SDS011;6987;19.472;-99.276;2022-10-29T00:08:25;27.90;;;21.58;;
13832;SDS011;6987;19.472;-99.276;2022-10-29T00:10:55;25.00;;;21.23;;
13832;SDS011;6987;19.472;-99.276;2022-10-29T00:13:24;26.48;;;21.63;;
13832;SDS011;6987;19.472;-99.276;2022-10-29T00:15:53;31.15;;;22.50;;
13832;SDS011;6987;19.472;-99.276;2022-10-29T00:18:23;24.50;;;20.52;;
13832;SDS011;6987;19.472;-99.276;2022-10-29T00:20:58;25.10;;;19.58;;
13832;SDS011;6987;19.472;-99.276;2022-10-29T00:23:29;23.08;;;18.27;;
13832;SDS011;6987;19.472;-99.276;2022-10-29T00:25:59;21.58;;;17.98;;
13832;SDS011;6987;19.472;-99.276;2022-10-29T00:28:28;21.75;;;17.83;;
13832;SDS011;6987;19.472;-99.276;2022-10-29T00:31:01;22.70;;;17.52;;
13832;SDS011;6987;19.472;-99.276;2022-10-29T00:33:31;26.73;;;18.00;;
13832;SDS011;6987;19.472;-99.276;2022-10-29T00:36:00;26.35;;;17.08;;
13832;SDS011;6987;19.472;-99.276;2022-10-29T00:38:31;24.20;;;16.10;;
13832;SDS011;6987;19.472;-99.276;2022-10-29T00:41:01;38.38;;;20.52;;
13832;SDS011;6987;19.472;-99.276;2022-10-29T00:43:32;25.08;;;19.08;;
13832;SDS011;6987;19.472;-99.276;2022-10-29T00:46:01;20.13;;;16.60;;
13832;SDS011;6987;19.472;-99.276;2022-10-29T00:48:32;19.42;;;17.05;;
13832;SDS011;6987;19.472;-99.276;2022-10-29T00:51:03;26.25;;;17.15;;
13832;SDS011;6987;19.472;-99.276;2022-10-29T00:53:36;19.38;;;17.33;;
13832;SDS011;6987;19.472;-99.276;2022-10-29T00:56:06;20.02;;;17.95;;
13832;SDS011;6987;19.472;-99.276;2022-10-29T00:58:35;22.23;;;17.30;;
13832;SDS011;6987;19.472;-99.276;2022-10-29T01:01:04;18.70;;;14.32;;
13832;SDS011;6987;19.472;-99.276;2022-10-29T01:03:33;15.40;;;12.93;;
13832;SDS011;6987;19.472;-99.276;2022-10-29T01:06:03;14.80;;;11.10;;
13832;SDS011;6987;19.472;-99.276;2022-10-29T01:08:33;16.77;;;11.25;;
13832;SDS011;6987;19.472;-99.276;2022-10-29T01:11:05;24.55;;;15.85;;
13832;SDS011;6987;19.472;-99.276;2022-10-29T01:13:52;13.90;;;10.88;;
13832;SDS011;6987;19.472;-99.276;2022-10-29T01:16:26;21.23;;;14.90;;
13832;SDS011;6987;19.472;-99.276;2022-10-29T01:18:58;16.17;;;12.88;;
13832;SDS011;6987;19.472;-99.276;2022-10-29T01:21:36;17.83;;;13.05;;
13832;SDS011;6987;19.472;-99.276;2022-10-29T01:27:14;17.92;;;14.02;;
13832;SDS011;6987;19.472;-99.276;2022-10-29T01:29:54;17.80;;;14.13;;
13832;SDS011;6987;19.472;-99.276;2022-10-29T01:32:31;18.73;;;13.07;;
13832;SDS011;6987;19.472;-99.276;2022-10-29T01:35:01;20.88;;;13.57;;
13832;SDS011;6987;19.472;-99.276;2022-10-29T01:37:31;27.52;;;14.13;;
13832;SDS011;6987;19.472;-99.276;2022-10-29T01:40:04;15.73;;;13.05;;
13832;SDS011;6987;19.472;-99.276;2022-10-29T01:42:35;20.65;;;13.75;;
13832;SDS011;6987;19.472;-99.276;2022-10-29T01:45:08;20.63;;;14.20;;
13832;SDS011;6987;19.472;-99.276;2022-10-29T01:47:42;22.50;;;13.98;;
13832;SDS011;6987;19.472;-99.276;2022-10-29T01:50:12;22.85;;;13.30;;
13832;SDS011;6987;19.472;-99.276;2022-10-29T01:52:43;20.67;;;15.00;;
13832;SDS011;6987;19.472;-99.276;2022-10-29T01:55:14;20.73;;;15.75;;
13832;SDS011;6987;19.472;-99.276;2022-10-29T01:57:44;19.35;;;15.23;;
13832;SDS011;6987;19.472;-99.276;2022-10-29T02:00:14;19.98;;;16.52;;
13832;SDS011;6987;19.472;-99.276;2022-10-29T02:02:52;19.95;;;14.77;;
13832;SDS011;6987;19.472;-99.276;2022-10-29T02:05:25;17.92;;;15.60;;
13832;SDS011;6987;19.472;-99.276;2022-10-29T02:07:56;19.42;;;16.02;;
13832;SDS011;6987;19.472;-99.276;2022-10-29T02:10:27;20.77;;;15.85;;
13832;SDS011;6987;19.472;-99.276;2022-10-29T02:12:58;25.02;;;16.67;;
13832;SDS011;6987;19.472;-99.276;2022-10-29T02:15:28;21.35;;;15.85;;
13832;SDS011;6987;19.472;-99.276;2022-10-29T02:18:01;24.05;;;16.15;;
13832;SDS011;6987;19.472;-99.276;2022-10-29T02:20:31;19.27;;;15.02;;
13832;SDS011;6987;19.472;-99.276;2022-10-29T02:23:00;24.83;;;15.73;;
13832;SDS011;6987;19.472;-99.276;2022-10-29T02:25:29;23.70;;;15.57;;
13832;SDS011;6987;19.472;-99.276;2022-10-29T02:27:58;17.23;;;13.32;;
13832;SDS011;6987;19.472;-99.276;2022-10-29T02:30:27;20.25;;;13.68;;
13832;SDS011;6987;19.472;-99.276;2022-10-29T02:32:56;20.25;;;13.60;;
13832;SDS011;6987;19.472;-99.276;2022-10-29T02:35:27;14.93;;;13.38;;
13832;SDS011;6987;19.472;-99.276;2022-10-29T02:37:56;14.80;;;12.60;;
13832;SDS011;6987;19.472;-99.276;2022-10-29T02:40:25;16.90;;;14.02;;
13832;SDS011;6987;19.472;-99.276;2022-10-29T02:42:54;15.75;;;12.35;;
13832;SDS011;6987;19.472;-99.276;2022-10-29T02:45:23;14.85;;;12.65;;
13832;SDS011;6987;19.472;-99.276;2022-10-29T02:47:52;16.75;;;11.55;;
13832;SDS011;6987;19.472;-99.276;2022-10-29T02:50:26;16.15;;;11.15;;
13832;SDS011;6987;19.472;-99.276;2022-10-29T02:52:57;13.00;;;11.60;;
13832;SDS011;6987;19.472;-99.276;2022-10-29T02:55:26;17.45;;;12.07;;
13832;SDS011;6987;19.472;-99.276;2022-10-29T02:57:55;13.07;;;10.88;;
13832;SDS011;6987;19.472;-99.276;2022-10-29T03:00:24;17.70;;;11.55;;
13832;SDS011;6987;19.472;-99.276;2022-10-29T03:02:53;11.38;;;10.02;;
13832;SDS011;6987;19.472;-99.276;2022-10-29T03:05:22;16.75;;;9.57;;
13832;SDS011;6987;19.472;-99.276;2022-10-29T03:07:51;11.20;;;10.05;;
13832;SDS011;6987;19.472;-99.276;2022-10-29T03:10:22;12.55;;;9.95;;
13832;SDS011;6987;19.472;-99.276;2022-10-29T03:12:51;10.82;;;9.23;;
13832;SDS011;6987;19.472;-99.276;2022-10-29T03:15:20;10.15;;;9.15;;
13832;SDS011;6987;19.472;-99.276;2022-10-29T03:17:50;11.48;;;9.20;;
13832;SDS011;6987;19.472;-99.276;2022-10-29T03:20:19;11.95;;;9.95;;
13832;SDS011;6987;19.472;-99.276;2022-10-29T03:22:48;9.95;;;9.00;;
13832;SDS011;6987;19.472;-99.276;2022-10-29T03:25:17;15.85;;;9.55;;
13832;SDS011;6987;19.472;-99.276;2022-10-29T03:27:48;12.05;;;9.27;;
13832;SDS011;6987;19.472;-99.276;2022-10-29T03:30:18;11.52;;;8.75;;
13832;SDS011;6987;19.472;-99.276;2022-10-29T03:32:48;13.32;;;8.68;;
13832;SDS011;6987;19.472;-99.276;2022-10-29T03:35:17;15.35;;;9.43;;
13832;SDS011;6987;19.472;-99.276;2022-10-29T03:37:48;9.68;;;8.55;;
13832;SDS011;6987;19.472;-99.276;2022-10-29T03:40:17;11.88;;;9.50;;
13832;SDS011;6987;19.472;-99.276;2022-10-29T03:42:48;10.68;;;8.88;;
13832;SDS011;6987;19.472;-99.276;2022-10-29T03:45:17;11.10;;;10.00;;
13832;SDS011;6987;19.472;-99.276;2022-10-29T03:47:47;11.68;;;10.52;;
13832;SDS011;6987;19.472;-99.276;2022-10-29T03:50:16;18.30;;;11.07;;
13832;SDS011;6987;19.472;-99.276;2022-10-29T03:52:45;15.02;;;11.32;;
13832;SDS011;6987;19.472;-99.276;2022-10-29T03:55:14;12.63;;;10.15;;
13832;SDS011;6987;19.472;-99.276;2022-10-29T03:57:43;12.32;;;10.20;;
13832;SDS011;6987;19.472;-99.276;2022-10-29T04:00:14;15.45;;;9.48;;
13832;SDS011;6987;19.472;-99.276;2022-10-29T04:02:44;12.00;;;8.95;;
13832;SDS011;6987;19.472;-99.276;2022-10-29T04:05:15;10.48;;;9.02;;
13832;SDS011;6987;19.472;-99.276;2022-10-29T04:07:44;10.18;;;7.90;;
13832;SDS011;6987;19.472;-99.276;2022-10-29T04:10:13;9.85;;;8.85;;
13832;SDS011;6987;19.472;-99.276;2022-10-29T04:12:44;10.02;;;8.55;;
13832;SDS011;6987;19.472;-99.276;2022-10-29T04:15:15;17.50;;;9.15;;
13832;SDS011;6987;19.472;-99.276;2022-10-29T04:17:44;11.55;;;8.32;;
13832;SDS011;6987;19.472;-99.276;2022-10-29T04:20:13;9.88;;;8.68;;
13832;SDS011;6987;19.472;-99.276;2022-10-29T04:22:43;9.98;;;7.97;;
13832;SDS011;6987;19.472;-99.276;2022-10-29T04:25:12;11.63;;;8.32;;
13832;SDS011;6987;19.472;-99.276;2022-10-29T04:27:41;9.88;;;7.60;;
13832;SDS011;6987;19.472;-99.276;2022-10-29T04:30:10;10.48;;;8.57;;
13832;SDS011;6987;19.472;-99.276;2022-10-29T04:32:43;11.00;;;7.63;;
13832;SDS011;6987;19.472;-99.276;2022-10-29T04:35:12;11.65;;;7.80;;
13832;SDS011;6987;19.472;-99.276;2022-10-29T04:37:44;12.15;;;8.00;;
13832;SDS011;6987;19.472;-99.276;2022-10-29T04:40:13;12.35;;;7.63;;
13832;SDS011;6987;19.472;-99.276;2022-10-29T04:42:42;7.45;;;6.63;;
13832;SDS011;6987;19.472;-99.276;2022-10-29T04:45:11;8.40;;;7.15;;
13832;SDS011;6987;19.472;-99.276;2022-10-29T04:47:42;8.30;;;6.57;;
13832;SDS011;6987;19.472;-99.276;2022-10-29T04:50:11;7.30;;;6.55;;
13832;SDS011;6987;19.472;-99.276;2022-10-29T04:52:40;7.85;;;6.45;;
13832;SDS011;6987;19.472;-99.276;2022-10-29T04:55:09;8.80;;;5.82;;
13832;SDS011;6987;19.472;-99.276;2022-10-29T04:57:38;6.28;;;5.75;;
13832;SDS011;6987;19.472;-99.276;2022-10-29T05:00:07;8.52;;;6.18;;
13832;SDS011;6987;19.472;-99.276;2022-10-29T05:02:36;6.93;;;5.80;;
13832;SDS011;6987;19.472;-99.276;2022-10-29T05:05:07;5.97;;;5.30;;
13832;SDS011;6987;19.472;-99.276;2022-10-29T05:07:36;8.90;;;5.10;;
13832;SDS011;6987;19.472;-99.276;2022-10-29T05:10:05;7.10;;;5.20;;
13832;SDS011;6987;19.472;-99.276;2022-10-29T05:12:34;5.40;;;4.90;;
13832;SDS011;6987;19.472;-99.276;2022-10-29T05:15:03;4.72;;;4.35;;
13832;SDS011;6987;19.472;-99.276;2022-10-29T05:17:35;4.40;;;3.80;;
13832;SDS011;6987;19.472;-99.276;2022-10-29T05:20:05;4.78;;;4.28;;
13832;SDS011;6987;19.472;-99.276;2022-10-29T05:22:36;3.67;;;3.38;;
13832;SDS011;6987;19.472;-99.276;2022-10-29T05:25:05;4.15;;;3.85;;
13832;SDS011;6987;19.472;-99.276;2022-10-29T05:27:34;2.85;;;2.65;;
13832;SDS011;6987;19.472;-99.276;2022-10-29T05:30:12;2.75;;;2.60;;
13832;SDS011;6987;19.472;-99.276;2022-10-29T05:32:40;3.30;;;2.97;;
13832;SDS011;6987;19.472;-99.276;2022-10-29T05:35:09;6.40;;;3.17;;
13832;SDS011;6987;19.472;-99.276;2022-10-29T05:37:40;5.32;;;3.38;;
13832;SDS011;6987;19.472;-99.276;2022-10-29T05:40:09;2.47;;;2.28;;
13832;SDS011;6987;19.472;-99.276;2022-10-29T05:42:38;3.10;;;2.90;;
13832;SDS011;6987;19.472;-99.276;2022-10-29T05:45:08;3.08;;;2.72;;
13832;SDS011;6987;19.472;-99.276;2022-10-29T05:47:37;6.00;;;2.80;;
13832;SDS011;6987;19.472;-99.276;2022-10-29T05:50:06;3.35;;;2.03;;
13832;SDS011;6987;19.472;-99.276;2022-10-29T05:52:35;6.63;;;2.88;;
13832;SDS011;6987;19.472;-99.276;2022-10-29T05:55:06;2.22;;;2.03;;
13832;SDS011;6987;19.472;-99.276;2022-10-29T05:57:37;3.47;;;2.90;;
13832;SDS011;6987;19.472;-99.276;2022-10-29T06:00:07;3.60;;;2.13;;
13832;SDS011;6987;19.472;-99.276;2022-10-29T06:02:36;2.33;;;2.15;;
13832;SDS011;6987;19.472;-99.276;2022-10-29T06:05:05;2.72;;;2.53;;
13832;SDS011;6987;19.472;-99.276;2022-10-29T06:07:34;5.78;;;2.50;;
13832;SDS011;6987;19.472;-99.276;2022-10-29T06:10:06;3.00;;;2.03;;
13832;SDS011;6987;19.472;-99.276;2022-10-29T06:12:35;2.45;;;2.28;;
13832;SDS011;6987;19.472;-99.276;2022-10-29T06:15:04;2.83;;;2.50;;
13832;SDS011;6987;19.472;-99.276;2022-10-29T06:17:33;3.13;;;2.83;;
13832;SDS011;6987;19.472;-99.276;2022-10-29T06:20:02;2.17;;;2.08;;
13832;SDS011;6987;19.472;-99.276;2022-10-29T06:22:31;4.05;;;2.47;;
13832;SDS011;6987;19.472;-99.276;2022-10-29T06:25:00;4.43;;;3.58;;
13832;SDS011;6987;19.472;-99.276;2022-10-29T06:27:31;6.03;;;5.47;;
13832;SDS011;6987;19.472;-99.276;2022-10-29T06:30:00;3.20;;;3.00;;
13832;SDS011;6987;19.472;-99.276;2022-10-29T06:32:29;6.50;;;5.63;;
13832;SDS011;6987;19.472;-99.276;2022-10-29T06:34:57;15.52;;;4.93;;
13832;SDS011;6987;19.472;-99.276;2022-10-29T06:37:26;4.30;;;3.85;;
13832;SDS011;6987;19.472;-99.276;2022-10-29T06:39:57;10.90;;;7.95;;
13832;SDS011;6987;19.472;-99.276;2022-10-29T06:42:27;9.50;;;6.78;;
13832;SDS011;6987;19.472;-99.276;2022-10-29T06:44:57;6.82;;;6.15;;
13832;SDS011;6987;19.472;-99.276;2022-10-29T06:47:26;9.63;;;6.70;;
13832;SDS011;6987;19.472;-99.276;2022-10-29T06:49:55;10.35;;;6.60;;
13832;SDS011;6987;19.472;-99.276;2022-10-29T06:52:24;7.75;;;6.90;;
13832;SDS011;6987;19.472;-99.276;2022-10-29T06:54:53;12.50;;;7.82;;
13832;SDS011;6987;19.472;-99.276;2022-10-29T06:57:22;10.10;;;7.47;;
13832;SDS011;6987;19.472;-99.276;2022-10-29T06:59:51;8.38;;;7.57;;
13832;SDS011;6987;19.472;-99.276;2022-10-29T07:02:21;10.32;;;8.18;;
13832;SDS011;6987;19.472;-99.276;2022-10-29T07:04:50;8.98;;;7.53;;
13832;SDS011;6987;19.472;-99.276;2022-10-29T07:07:19;9.95;;;7.35;;
13832;SDS011;6987;19.472;-99.276;2022-10-29T07:09:48;7.38;;;6.63;;
13832;SDS011;6987;19.472;-99.276;2022-10-29T07:12:17;7.97;;;6.00;;
13832;SDS011;6987;19.472;-99.276;2022-10-29T07:14:45;10.52;;;7.50;;
13832;SDS011;6987;19.472;-99.276;2022-10-29T07:17:14;13.57;;;7.30;;
13832;SDS011;6987;19.472;-99.276;2022-10-29T07:19:45;6.32;;;5.72;;
13832;SDS011;6987;19.472;-99.276;2022-10-29T07:22:14;6.25;;;5.65;;
13832;SDS011;6987;19.472;-99.276;2022-10-29T07:24:43;9.38;;;6.70;;
13832;SDS011;6987;19.472;-99.276;2022-10-29T07:27:12;7.45;;;6.63;;
13832;SDS011;6987;19.472;-99.276;2022-10-29T07:29:41;11.18;;;7.40;;
13832;SDS011;6987;19.472;-99.276;2022-10-29T07:32:10;9.98;;;7.00;;
13832;SDS011;6987;19.472;-99.276;2022-10-29T07:34:38;16.92;;;10.02;;
13832;SDS011;6987;19.472;-99.276;2022-10-29T07:37:09;17.95;;;11.38;;
13832;SDS011;6987;19.472;-99.276;2022-10-29T07:39:38;12.15;;;7.43;;
13832;SDS011;6987;19.472;-99.276;2022-10-29T07:42:07;8.07;;;7.35;;
13832;SDS011;6987;19.472;-99.276;2022-10-29T07:44:35;10.38;;;8.57;;
13832;SDS011;6987;19.472;-99.276;2022-10-29T07:47:04;10.07;;;9.05;;
13832;SDS011;6987;19.472;-99.276;2022-10-29T07:49:33;8.25;;;7.35;;
13832;SDS011;6987;19.472;-99.276;2022-10-29T07:52:02;14.23;;;9.23;;
13832;SDS011;6987;19.472;-99.276;2022-10-29T07:54:33;14.10;;;7.82;;
13832;SDS011;6987;19.472;-99.276;2022-10-29T07:57:01;9.30;;;7.80;;
13832;SDS011;6987;19.472;-99.276;2022-10-29T07:59:30;9.60;;;7.72;;
13832;SDS011;6987;19.472;-99.276;2022-10-29T08:01:59;12.43;;;8.40;;
13832;SDS011;6987;19.472;-99.276;2022-10-29T08:04:29;14.20;;;9.70;;
13832;SDS011;6987;19.472;-99.276;2022-10-29T08:06:58;17.13;;;9.88;;
13832;SDS011;6987;19.472;-99.276;2022-10-29T08:09:27;13.57;;;10.18;;
13832;SDS011;6987;19.472;-99.276;2022-10-29T08:11:57;10.68;;;9.68;;
13832;SDS011;6987;19.472;-99.276;2022-10-29T08:14:26;12.90;;;9.43;;
13832;SDS011;6987;19.472;-99.276;2022-10-29T08:16:55;13.68;;;9.43;;
13832;SDS011;6987;19.472;-99.276;2022-10-29T08:19:24;13.10;;;9.48;;
13832;SDS011;6987;19.472;-99.276;2022-10-29T08:21:54;11.20;;;10.05;;
13832;SDS011;6987;19.472;-99.276;2022-10-29T08:24:23;11.15;;;9.77;;
13832;SDS011;6987;19.472;-99.276;2022-10-29T08:26:52;12.35;;;9.35;;
13832;SDS011;6987;19.472;-99.276;2022-10-29T08:29:22;11.13;;;9.43;;
13832;SDS011;6987;19.472;-99.276;2022-10-29T08:31:51;10.95;;;8.98;;
13832;SDS011;6987;19.472;-99.276;2022-10-29T08:34:20;12.15;;;8.93;;
13832;SDS011;6987;19.472;-99.276;2022-10-29T08:36:49;12.00;;;9.75;;
13832;SDS011;6987;19.472;-99.276;2022-10-29T08:39:18;10.57;;;9.50;;
13832;SDS011;6987;19.472;-99.276;2022-10-29T08:41:50;12.60;;;9.60;;
13832;SDS011;6987;19.472;-99.276;2022-10-29T08:47:14;12.38;;;9.40;;
13832;SDS011;6987;19.472;-99.276;2022-10-29T08:49:45;12.57;;;10.88;;
13832;SDS011;6987;19.472;-99.276;2022-10-29T08:52:15;15.18;;;10.98;;
13832;SDS011;6987;19.472;-99.276;2022-10-29T08:54:50;12.68;;;10.82;;
13832;SDS011;6987;19.472;-99.276;2022-10-29T08:57:21;15.45;;;11.02;;
13832;SDS011;6987;19.472;-99.276;2022-10-29T08:59:57;14.38;;;11.02;;
13832;SDS011;6987;19.472;-99.276;2022-10-29T09:02:28;13.60;;;11.35;;
13832;SDS011;6987;19.472;-99.276;2022-10-29T09:04:57;13.80;;;10.68;;
13832;SDS011;6987;19.472;-99.276;2022-10-29T09:07:30;11.85;;;10.02;;
13832;SDS011;6987;19.472;-99.276;2022-10-29T09:10:07;14.20;;;11.25;;
13832;SDS011;6987;19.472;-99.276;2022-10-29T09:12:52;12.73;;;10.30;;
13832;SDS011;6987;19.472;-99.276;2022-10-29T09:15:35;10.57;;;9.48;;
13832;SDS011;6987;19.472;-99.276;2022-10-29T09:18:26;14.32;;;9.57;;
13832;SDS011;6987;19.472;-99.276;2022-10-29T09:20:57;11.15;;;9.68;;
13832;SDS011;6987;19.472;-99.276;2022-10-29T09:23:33;11.73;;;9.75;;
13832;SDS011;6987;19.472;-99.276;2022-10-29T09:26:09;16.95;;;10.07;;
13832;SDS011;6987;19.472;-99.276;2022-10-29T09:28:41;14.50;;;10.20;;
13832;SDS011;6987;19.472;-99.276;2022-10-29T09:31:16;12.68;;;9.80;;
13832;SDS011;6987;19.472;-99.276;2022-10-29T09:33:48;9.95;;;8.93;;
13832;SDS011;6987;19.472;-99.276;2022-10-29T09:36:19;10.48;;;9.27;;
13832;SDS011;6987;19.472;-99.276;2022-10-29T09:38:52;10.32;;;9.27;;
13832;SDS011;6987;19.472;-99.276;2022-10-29T09:41:25;10.45;;;9.38;;
13832;SDS011;6987;19.472;-99.276;2022-10-29T09:43:57;11.02;;;9.60;;
13832;SDS011;6987;19.472;-99.276;2022-10-29T09:46:29;10.48;;;8.20;;
13832;SDS011;6987;19.472;-99.276;2022-10-29T09:49:06;10.55;;;8.68;;
13832;SDS011;6987;19.472;-99.276;2022-10-29T09:51:40;13.88;;;9.48;;
13832;SDS011;6987;19.472;-99.276;2022-10-29T09:54:10;9.68;;;8.68;;
13832;SDS011;6987;19.472;-99.276;2022-10-29T09:56:39;9.68;;;8.77;;
13832;SDS011;6987;19.472;-99.276;2022-10-29T09:59:10;10.48;;;8.45;;
13832;SDS011;6987;19.472;-99.276;2022-10-29T10:01:39;13.43;;;8.52;;
13832;SDS011;6987;19.472;-99.276;2022-10-29T10:04:17;11.40;;;9.45;;
13832;SDS011;6987;19.472;-99.276;2022-10-29T10:07:01;11.07;;;8.85;;
13832;SDS011;6987;19.472;-99.276;2022-10-29T10:09:38;12.18;;;8.05;;
13832;SDS011;6987;19.472;-99.276;2022-10-29T10:12:17;10.73;;;7.40;;
13832;SDS011;6987;19.472;-99.276;2022-10-29T10:14:46;12.48;;;8.45;;
13832;SDS011;6987;19.472;-99.276;2022-10-29T10:17:15;11.07;;;9.07;;
13832;SDS011;6987;19.472;-99.276;2022-10-29T10:19:46;10.52;;;8.57;;
13832;SDS011;6987;19.472;-99.276;2022-10-29T10:22:18;9.60;;;8.60;;
13832;SDS011;6987;19.472;-99.276;2022-10-29T10:24:47;22.42;;;12.20;;
13832;SDS011;6987;19.472;-99.276;2022-10-29T10:27:27;15.70;;;13.07;;
13832;SDS011;6987;19.472;-99.276;2022-10-29T10:30:10;15.45;;;12.82;;
13832;SDS011;6987;19.472;-99.276;2022-10-29T10:32:40;18.25;;;12.43;;
13832;SDS011;6987;19.472;-99.276;2022-10-29T10:35:28;17.98;;;11.75;;
13832;SDS011;6987;19.472;-99.276;2022-10-29T10:37:57;16.25;;;11.02;;
13832;SDS011;6987;19.472;-99.276;2022-10-29T10:40:34;15.18;;;10.80;;
13832;SDS011;6987;19.472;-99.276;2022-10-29T10:43:03;17.33;;;9.93;;
13832;SDS011;6987;19.472;-99.276;2022-10-29T10:45:33;14.07;;;10.02;;
13832;SDS011;6987;19.472;-99.276;2022-10-29T10:48:06;13.80;;;9.38;;
13832;SDS011;6987;19.472;-99.276;2022-10-29T10:50:37;14.70;;;9.52;;
13832;SDS011;6987;19.472;-99.276;2022-10-29T10:53:14;13.35;;;9.60;;
13832;SDS011;6987;19.472;-99.276;2022-10-29T10:55:45;11.85;;;9.43;;
13832;SDS011;6987;19.472;-99.276;2022-10-29T10:58:16;10.38;;;9.15;;
13832;SDS011;6987;19.472;-99.276;2022-10-29T11:00:50;10.75;;;9.30;;
13832;SDS011;6987;19.472;-99.276;2022-10-29T11:03:23;14.18;;;9.40;;
13832;SDS011;6987;19.472;-99.276;2022-10-29T11:05:59;9.85;;;8.82;;
13832;SDS011;6987;19.472;-99.276;2022-10-29T11:08:31;14.52;;;8.75;;
13832;SDS011;6987;19.472;-99.276;2022-10-29T11:11:03;9.85;;;8.48;;
13832;SDS011;6987;19.472;-99.276;2022-10-29T11:13:34;10.23;;;8.98;;
13832;SDS011;6987;19.472;-99.276;2022-10-29T11:16:03;17.83;;;10.65;;
13832;SDS011;6987;19.472;-99.276;2022-10-29T11:18:35;16.80;;;10.07;;
13832;SDS011;6987;19.472;-99.276;2022-10-29T11:21:09;15.82;;;9.70;;
13832;SDS011;6987;19.472;-99.276;2022-10-29T11:23:42;17.55;;;9.80;;
13832;SDS011;6987;19.472;-99.276;2022-10-29T11:26:14;20.10;;;8.80;;
13832;SDS011;6987;19.472;-99.276;2022-10-29T11:28:46;15.55;;;9.30;;
13832;SDS011;6987;19.472;-99.276;2022-10-29T11:31:18;9.27;;;8.25;;
13832;SDS011;6987;19.472;-99.276;2022-10-29T11:33:51;13.65;;;8.88;;
13832;SDS011;6987;19.472;-99.276;2022-10-29T11:36:24;10.75;;;8.63;;
13832;SDS011;6987;19.472;-99.276;2022-10-29T11:38:55;9.85;;;8.82;;
13832;SDS011;6987;19.472;-99.276;2022-10-29T11:41:32;18.17;;;8.80;;
13832;SDS011;6987;19.472;-99.276;2022-10-29T11:44:01;13.07;;;8.85;;
13832;SDS011;6987;19.472;-99.276;2022-10-29T11:46:32;11.00;;;8.93;;
13832;SDS011;6987;19.472;-99.276;2022-10-29T11:49:03;11.50;;;7.68;;
13832;SDS011;6987;19.472;-99.276;2022-10-29T11:51:37;10.55;;;8.32;;
13832;SDS011;6987;19.472;-99.276;2022-10-29T11:54:10;10.02;;;7.90;;
13832;SDS011;6987;19.472;-99.276;2022-10-29T11:56:46;9.85;;;7.93;;
13832;SDS011;6987;19.472;-99.276;2022-10-29T11:59:29;18.30;;;9.02;;
13832;SDS011;6987;19.472;-99.276;2022-10-29T12:02:06;8.38;;;7.57;;
13832;SDS011;6987;19.472;-99.276;2022-10-29T12:04:39;11.52;;;8.52;;
13832;SDS011;6987;19.472;-99.276;2022-10-29T12:07:21;10.98;;;7.57;;
13832;SDS011;6987;19.472;-99.276;2022-10-29T12:09:58;9.30;;;7.45;;
13832;SDS011;6987;19.472;-99.276;2022-10-29T12:12:30;14.48;;;7.30;;
13832;SDS011;6987;19.472;-99.276;2022-10-29T12:15:03;10.13;;;7.78;;
13832;SDS011;6987;19.472;-99.276;2022-10-29T12:17:36;11.48;;;8.32;;
13832;SDS011;6987;19.472;-99.276;2022-10-29T12:20:10;11.05;;;8.20;;
13832;SDS011;6987;19.472;-99.276;2022-10-29T12:22:46;12.93;;;8.30;;
13832;SDS011;6987;19.472;-99.276;2022-10-29T12:25:22;18.58;;;9.50;;
13832;SDS011;6987;19.472;-99.276;2022-10-29T12:27:57;14.30;;;8.00;;
13832;SDS011;6987;19.472;-99.276;2022-10-29T12:30:27;16.77;;;8.55;;
13832;SDS011;6987;19.472;-99.276;2022-10-29T12:32:58;12.68;;;8.32;;
13832;SDS011;6987;19.472;-99.276;2022-10-29T12:35:32;16.13;;;9.57;;
13832;SDS011;6987;19.472;-99.276;2022-10-29T12:38:12;13.82;;;10.70;;
13832;SDS011;6987;19.472;-99.276;2022-10-29T12:40:45;9.88;;;8.57;;
13832;SDS011;6987;19.472;-99.276;2022-10-29T12:43:18;9.60;;;8.60;;
13832;SDS011;6987;19.472;-99.276;2022-10-29T12:45:49;10.68;;;8.10;;
13832;SDS011;6987;19.472;-99.276;2022-10-29T12:48:20;15.35;;;8.90;;
13832;SDS011;6987;19.472;-99.276;2022-10-29T12:50:53;9.35;;;8.45;;
13832;SDS011;6987;19.472;-99.276;2022-10-29T12:53:28;27.42;;;9.35;;
13832;SDS011;6987;19.472;-99.276;2022-10-29T12:55:58;15.82;;;9.63;;
13832;SDS011;6987;19.472;-99.276;2022-10-29T12:58:43;17.85;;;9.15;;
13832;SDS011;6987;19.472;-99.276;2022-10-29T13:04:21;11.77;;;9.65;;
13832;SDS011;6987;19.472;-99.276;2022-10-29T13:06:57;33.08;;;9.65;;
13832;SDS011;6987;19.472;-99.276;2022-10-29T13:09:29;16.58;;;9.32;;
13832;SDS011;6987;19.472;-99.276;2022-10-29T13:11:59;20.45;;;9.65;;
13832;SDS011;6987;19.472;-99.276;2022-10-29T13:14:33;15.85;;;9.77;;
13832;SDS011;6987;19.472;-99.276;2022-10-29T13:17:03;11.40;;;8.70;;
13832;SDS011;6987;19.472;-99.276;2022-10-29T13:19:42;14.90;;;9.43;;
13832;SDS011;6987;19.472;-99.276;2022-10-29T13:22:33;20.27;;;9.48;;
13832;SDS011;6987;19.472;-99.276;2022-10-29T13:25:35;17.17;;;9.27;;
13832;SDS011;6987;19.472;-99.276;2022-10-29T13:33:48;29.80;;;11.98;;
13832;SDS011;6987;19.472;-99.276;2022-10-29T13:39:14;14.10;;;12.02;;
13832;SDS011;6987;19.472;-99.276;2022-10-29T13:41:51;16.10;;;12.52;;
13832;SDS011;6987;19.472;-99.276;2022-10-29T13:44:21;22.45;;;13.35;;
13832;SDS011;6987;19.472;-99.276;2022-10-29T13:46:51;21.85;;;12.70;;
13832;SDS011;6987;19.472;-99.276;2022-10-29T13:49:22;16.60;;;12.80;;
13832;SDS011;6987;19.472;-99.276;2022-10-29T13:51:56;15.65;;;12.50;;
13832;SDS011;6987;19.472;-99.276;2022-10-29T13:54:29;16.10;;;11.10;;
13832;SDS011;6987;19.472;-99.276;2022-10-29T13:57:01;15.25;;;12.85;;
13832;SDS011;6987;19.472;-99.276;2022-10-29T13:59:41;18.15;;;13.48;;
13832;SDS011;6987;19.472;-99.276;2022-10-29T14:02:17;18.65;;;12.73;;
13832;SDS011;6987;19.472;-99.276;2022-10-29T14:04:48;16.77;;;12.48;;
13832;SDS011;6987;19.472;-99.276;2022-10-29T14:07:18;25.27;;;14.85;;
13832;SDS011;6987;19.472;-99.276;2022-10-29T14:09:49;21.65;;;15.77;;
13832;SDS011;6987;19.472;-99.276;2022-10-29T14:12:21;22.95;;;15.88;;
13832;SDS011;6987;19.472;-99.276;2022-10-29T14:14:54;25.45;;;16.73;;
13832;SDS011;6987;19.472;-99.276;2022-10-29T14:17:24;21.42;;;15.32;;
13832;SDS011;6987;19.472;-99.276;2022-10-29T14:19:53;19.75;;;15.23;;
13832;SDS011;6987;19.472;-99.276;2022-10-29T14:22:32;26.05;;;17.08;;
13832;SDS011;6987;19.472;-99.276;2022-10-29T14:25:02;21.65;;;16.00;;
13832;SDS011;6987;19.472;-99.276;2022-10-29T14:27:33;24.25;;;16.63;;
13832;SDS011;6987;19.472;-99.276;2022-10-29T14:30:12;19.55;;;14.98;;
13832;SDS011;6987;19.472;-99.276;2022-10-29T14:32:41;24.45;;;17.02;;
13832;SDS011;6987;19.472;-99.276;2022-10-29T14:35:13;21.20;;;16.67;;
13832;SDS011;6987;19.472;-99.276;2022-10-29T14:37:43;23.05;;;15.43;;
13832;SDS011;6987;19.472;-99.276;2022-10-29T14:40:15;23.77;;;15.77;;
13832;SDS011;6987;19.472;-99.276;2022-10-29T14:42:47;21.88;;;16.15;;
13832;SDS011;6987;19.472;-99.276;2022-10-29T14:45:19;33.03;;;16.02;;
13832;SDS011;6987;19.472;-99.276;2022-10-29T14:47:50;23.73;;;15.73;;
13832;SDS011;6987;19.472;-99.276;2022-10-29T14:50:20;20.98;;;16.08;;
13832;SDS011;6987;19.472;-99.276;2022-10-29T14:52:50;21.17;;;14.75;;
13832;SDS011;6987;19.472;-99.276;2022-10-29T14:55:21;18.02;;;15.07;;
13832;SDS011;6987;19.472;-99.276;2022-10-29T14:57:54;16.95;;;14.57;;
13832;SDS011;6987;19.472;-99.276;2022-10-29T15:00:27;20.95;;;15.55;;